Zarechensk — ONGC — position and weather

sailwx.info

Track history (hours):
 
Tides and Currents Weather Stations Pressure Air Temp Water Temp Dewpoint Dewpoint Depression Visibility Wind Speed Wind Dir Waves Ship Positions

Zarechensk

Last reported at 2014-Aug-28 23:19 UTC. Time now 2014-Sep-23 02:20 UTC.
Position N 50°33' E 000°08'.
Warning: this ship's position is 25 days out of date.

Length 180 m; draft 10.2 m.

MMSI: 205561000.

Date/timePositionNaut miles runAvg speedWind from/ knotsBaromVisibWave heightAir tempDewpointWater temp
2014-Aug-28 23:19N 50°33' E 000°08'7 8.3
2014-Aug-28 22:31N 50°35' E 000°18'8 8.2
2014-Aug-28 21:33N 50°37' E 000°30'10 9.7
2014-Aug-28 20:33N 50°42' E 000°44'1111.3
2014-Aug-28 19:33N 50°49' E 000°58'2311.5
2014-Aug-28 17:34N 51°04' E 001°26'9 9.4
2014-Aug-28 16:33N 51°10' E 001°38'8 8.3
2014-Aug-28 15:33N 51°16' E 001°47'8 8.0
2014-Aug-28 14:33N 51°23' E 001°53'9 8.9
2014-Aug-28 13:33N 51°30' E 002°00'1110.2
2014-Aug-28 12:30N 51°38' E 002°12'11810.8
2014-Aug-28 01:33N 53°26' E 003°31'1111.2
2014-Aug-28 00:33N 53°36' E 003°37'19411.3
2014-Aug-27 07:19N 56°12' E 006°59'911.2
2014-Aug-27 06:33N 56°19' E 007°08'3911.4
2014-Aug-27 03:09N 56°50' E 007°48'2311.9
2014-Aug-27 01:13N 57°09' E 008°12'811.5
2014-Aug-27 00:33N 57°15' E 008°21'1211.5
2014-Aug-26 23:33N 57°23' E 008°36'1212.0
2014-Aug-26 22:33N 57°31' E 008°53'1611.2
2014-Aug-26 21:09N 57°39' E 009°18'711.2
2014-Aug-26 20:33N 57°41' E 009°30'2211.2
2014-Aug-26 18:34N 57°48' E 010°10'1111.5
2014-Aug-26 17:34N 57°48' E 010°32'9 8.8
2014-Aug-26 16:33N 57°44' E 010°46'5 5.2
2014-Aug-26 15:33N 57°40' E 010°41'9 9.5
2014-Aug-26 14:33N 57°35' E 010°56'1111.1
2014-Aug-26 13:33N 57°33' E 011°17'1110.6
2014-Aug-26 12:34N 57°24' E 011°28'1111.1
2014-Aug-26 11:34N 57°14' E 011°35'164 9.0
2014-Aug-25 17:15N 54°29' E 011°33'1010.6
2014-Aug-25 16:19N 54°26' E 011°49'810.3
2014-Aug-25 15:33N 54°26' E 012°03'9 8.7
2014-Aug-25 14:33N 54°32' E 012°14'1010.1
2014-Aug-25 13:33N 54°40' E 012°25'1010.4
2014-Aug-25 12:33N 54°45' E 012°40'1510.7
2014-Aug-25 11:09N 54°51' E 013°04'911.2
2014-Aug-25 10:19N 54°54' E 013°19'810.2
2014-Aug-25 09:33N 54°57' E 013°32'3010.0
2014-Aug-25 06:33N 55°13' E 014°17'1110.8
2014-Aug-25 05:31N 55°22' E 014°29'1010.4
2014-Aug-25 04:33N 55°28' E 014°42'3110.3
2014-Aug-25 01:33N 55°44' E 015°30'3010.0
2014-Aug-24 22:34N 55°59' E 016°16'  
Track history (hours):
 
Tides and Currents Weather Stations Pressure Air Temp Water Temp Dewpoint Dewpoint Depression Visibility Wind Speed Wind Dir Waves Ship Positions

Zarechensk

Last reported at 2014-Aug-28 23:19 UTC. Time now 2014-Sep-23 02:20 UTC.
Position N 50°33' E 000°08'.
Warning: this ship's position is 25 days out of date.

Length 180 m; draft 10.2 m.

MMSI: 205561000.

Date/timePositionNaut miles runAvg speedWind from/ knotsBaromVisibWave heightAir tempDewpointWater temp
2014-Aug-28 23:19N 50°33' E 000°08'7 8.3
2014-Aug-28 22:31N 50°35' E 000°18'8 8.2
2014-Aug-28 21:33N 50°37' E 000°30'10 9.7
2014-Aug-28 20:33N 50°42' E 000°44'1111.3
2014-Aug-28 19:33N 50°49' E 000°58'2311.5
2014-Aug-28 17:34N 51°04' E 001°26'9 9.4
2014-Aug-28 16:33N 51°10' E 001°38'8 8.3
2014-Aug-28 15:33N 51°16' E 001°47'8 8.0
2014-Aug-28 14:33N 51°23' E 001°53'9 8.9
2014-Aug-28 13:33N 51°30' E 002°00'1110.2
2014-Aug-28 12:30N 51°38' E 002°12'11810.8
2014-Aug-28 01:33N 53°26' E 003°31'1111.2
2014-Aug-28 00:33N 53°36' E 003°37'19411.3
2014-Aug-27 07:19N 56°12' E 006°59'911.2
2014-Aug-27 06:33N 56°19' E 007°08'3911.4
2014-Aug-27 03:09N 56°50' E 007°48'2311.9
2014-Aug-27 01:13N 57°09' E 008°12'811.5
2014-Aug-27 00:33N 57°15' E 008°21'1211.5
2014-Aug-26 23:33N 57°23' E 008°36'1212.0
2014-Aug-26 22:33N 57°31' E 008°53'1611.2
2014-Aug-26 21:09N 57°39' E 009°18'711.2
2014-Aug-26 20:33N 57°41' E 009°30'2211.2
2014-Aug-26 18:34N 57°48' E 010°10'1111.5
2014-Aug-26 17:34N 57°48' E 010°32'9 8.8
2014-Aug-26 16:33N 57°44' E 010°46'5 5.2
2014-Aug-26 15:33N 57°40' E 010°41'9 9.5
2014-Aug-26 14:33N 57°35' E 010°56'1111.1
2014-Aug-26 13:33N 57°33' E 011°17'1110.6
2014-Aug-26 12:34N 57°24' E 011°28'1111.1
2014-Aug-26 11:34N 57°14' E 011°35'164 9.0
2014-Aug-25 17:15N 54°29' E 011°33'1010.6
2014-Aug-25 16:19N 54°26' E 011°49'810.3
2014-Aug-25 15:33N 54°26' E 012°03'9 8.7
2014-Aug-25 14:33N 54°32' E 012°14'1010.1
2014-Aug-25 13:33N 54°40' E 012°25'1010.4
2014-Aug-25 12:33N 54°45' E 012°40'1510.7
2014-Aug-25 11:09N 54°51' E 013°04'911.2
2014-Aug-25 10:19N 54°54' E 013°19'810.2
2014-Aug-25 09:33N 54°57' E 013°32'3010.0
2014-Aug-25 06:33N 55°13' E 014°17'1110.8
2014-Aug-25 05:31N 55°22' E 014°29'1010.4
2014-Aug-25 04:33N 55°28' E 014°42'3110.3
2014-Aug-25 01:33N 55°44' E 015°30'3010.0
2014-Aug-24 22:34N 55°59' E 016°16'  

Dump ship's entire track history